Weather observations for the past three days for
Brownsville, Brownsville / South Padre Island International Airport
Imperial (Metric)
Date Time (cdt) Wind (mph) Vis. (mi.) Weather Sky Cond. Temperature (ºF) Relative Humidity Wind Chill (°F) Heat Index (°F) Pressure Precipitation (in)
Air Dwpt 6 hour altimeter (in) sea level (mb) 1 hr 3 hr 6 hr
Max. Min.
02 13:53 N 17 G 24 10.00 Overcast OVC019 69.1 57.9 68% 30.09 1018.8
02 12:53 N 16 G 24 10.00 Mostly Cloudy BKN015 BKN022 69.1 57 69.1 62.1 66% 30.1 1019.0
02 11:53 NW 14 G 24 10.00 Overcast OVC013 64.9 57 76% 30.11 1019.3
02 10:53 N 16 G 30 10.00 Overcast OVC012 64 55.9 75% 30.09 1018.8
02 09:53 NW 16 G 25 10.00 Overcast OVC010 63 57 81% 30.09 1018.8
02 08:53 NW 14 G 28 10.00 Overcast OVC008 62.1 57 84% 30.07 1018.0
02 07:53 NW 14 G 24 10.00 Light Rain OVC008 62.1 57.9 86% 30.03 1016.8
02 06:53 NW 15 G 24 10.00 Overcast OVC009 63 59 69.1 63 87% 30 1015.7
02 05:53 N 18 G 29 10.00 Overcast OVC010 64 59 84% 29.96 1014.5
02 04:53 N 15 G 30 10.00 Overcast OVC009 64 60.1 87% 29.94 1013.9
02 03:53 NW 14 8.00 Overcast OVC009 64.9 61 87% 29.93 1013.2
02 02:53 N 18 G 28 10.00 Overcast OVC010 66 61 84% 29.91 1012.8
02 01:53 N 14 G 26 10.00 Overcast OVC010 68 62.1 81% 29.91 1012.6
02 00:53 N 17 G 25 9.00 Overcast OVC012 69.1 64 80.1 69.1 84% 29.89 1012.1
01 23:53 N 15 G 28 10.00 Overcast OVC017 73 64.9 76% 29.88 1011.6
01 22:53 N 14 G 26 10.00 Overcast OVC019 73.9 64.9 74% 29.86 1011.2
01 21:53 N 16 G 31 10.00 Overcast OVC015 73.9 64.9 74% 29.82 1009.8
01 20:53 N 20 G 28 10.00 Overcast OVC015 73 64.9 76% 29.79 1008.6
01 19:53 N 15 G 25 10.00 Overcast OVC016 73.9 66 76% 29.75 1007.3
01 18:53 N 20 G 29 10.00 Overcast BKN022 OVC027 80.1 70 91.9 80.1 71% 83 29.7 1005.7
01 17:53 SE 6 10.00 Overcast OVC039 87.1 72 61% 94 29.64 1003.6
01 16:53 S 13 10.00 Overcast BKN045 OVC055 88 73 61% 96 29.63 1003.3
01 15:53 S 9 10.00 Mostly Cloudy BKN044 90 71.1 54% 96 29.64 1003.7
01 14:53 SE 15 10.00 Mostly Cloudy BKN037 BKN047 89.1 72 57% 96 29.66 1004.3
01 13:53 SE 15 G 24 10.00 Mostly Cloudy BKN036 BKN045 88 71.1 57% 94 29.7 1005.5
01 12:53 SE 16 G 26 10.00 Mostly Cloudy FEW030 SCT037 BKN044 90 72 90 78.1 56% 97 29.72 1006.2
01 11:53 SE 15 G 26 10.00 Overcast SCT030 BKN038 OVC046 86 71.1 61% 92 29.75 1007.3
01 10:53 SE 21 G 29 10.00 Partly Cloudy and Breezy SCT026 SCT031 87.1 72 61% 94 29.75 1007.3
01 09:53 SE 15 10.00 Mostly Cloudy BKN016 BKN070 84.9 73.9 70% 92 29.76 1007.6
01 08:53 SE 9 10.00 Partly Cloudy SCT010 81 75 82% 87 29.75 1007.3
01 07:53 SE 6 9.00 Mostly Cloudy BKN014 79 75.9 90% 83 29.75 1007.3
01 06:53 SE 5 10.00 Partly Cloudy FEW011 SCT016 78.1 75 79 78.1 90% 81 29.73 1006.5
01 05:53 E 6 10.00 Overcast FEW007 BKN015 OVC022 79 75 88% 83 29.72 1006.3
01 04:53 E 3 10.00 Overcast OVC015 79 75 88% 83 29.73 1006.6
01 03:53 E 7 10.00 Overcast BKN009 OVC013 79 75 88% 83 29.72 1006.4
01 02:53 E 8 10.00 Mostly Cloudy BKN012 79 75 88% 83 29.71 1005.9
01 01:53 E 12 10.00 Partly Cloudy FEW010 SCT015 79 75 88% 83 29.71 1006.1
01 00:53 E 12 10.00 Mostly Cloudy SCT010 BKN015 79 75 82.9 78.1 88% 83 29.74 1006.9
30 23:53 E 10 10.00 Fair CLR 78.1 75 90% 81 29.76 1007.7
30 22:53 E 6 10.00 Fair CLR 78.1 73.9 87% 81 29.76 1007.7
30 21:53 E 7 10.00 Fair CLR 79 73.9 85% 83 29.74 1007.0
30 20:53 E 5 10.00 Fair CLR 80.1 73.9 82% 85 29.73 1006.8
30 19:53 SE 12 10.00 Partly Cloudy SCT020 81 73 77% 86 29.69 1005.1
30 18:53 SE 10 10.00 Fair CLR 82.9 72 90 82.9 70% 88 29.68 1004.8
30 17:53 S 15 10.00 Fair CLR 84.9 71.1 63% 90 29.66 1004.4
30 16:53 SE 17 G 25 10.00 Mostly Cloudy BKN029 88 73 61% 96 29.67 1004.4
30 15:53 SE 17 10.00 Mostly Cloudy BKN029 88 72 59% 95 29.69 1005.2
30 14:53 SE 17 G 25 10.00 Mostly Cloudy BKN029 89.1 73.9 61% 98 29.72 1006.2
30 13:53 SE 18 G 28 10.00 Overcast BKN026 OVC033 87.1 73 63% 95 29.74 1007.0
30 12:53 SE 20 10.00 Mostly Cloudy SCT026 BKN033 86 73 88 79 65% 93 29.77 1007.8
30 11:53 SE 18 10.00 Mostly Cloudy SCT024 BKN033 88 73.9 63% 97 29.79 1008.5
30 10:53 SE 16 10.00 Mostly Cloudy SCT021 BKN033 84.9 73 68% 92 29.8 1009.0
30 09:53 SE 13 10.00 Mostly Cloudy BKN018 BKN024 BKN029 84.9 75 72% 93 29.8 1008.9
30 08:53 SE 12 G 18 9.00 Overcast BKN012 OVC019 82 75.9 82% 89 29.79 1008.5
30 07:53 SE 12 8.00 Mostly Cloudy BKN009 BKN017 80.1 75.9 87% 85 29.77 1007.9
30 06:53 SE 6 9.00 Overcast BKN015 OVC021 80.1 75.9 80.1 78.1 87% 85 29.76 1007.7
30 05:53 SE 12 9.00 Overcast SCT011 BKN016 OVC022 80.1 75 85% 85 29.75 1007.3
30 04:53 E 7 10.00 Overcast OVC013 80.1 75.9 87% 85 29.74 1007.0
30 03:53 E 8 10.00 Overcast BKN009 OVC013 79 75.9 90% 83 29.75 1007.1
30 02:53 SE 13 10.00 Light Rain BKN017 79 75.9 90% 83 29.75 1007.3
30 01:53 SE 6 10.00 Light Rain BKN016 79 75 88% 83 29.78 1008.4
30 00:53 SE 8 10.00 Light Rain BKN017 78.1 75 82.9 77 90% 81 29.79 1008.6
29 23:53 SE 6 10.00 Mostly Cloudy BKN014 77 73.9 90% 78 29.8 1008.9
29 22:53 SE 8 10.00 Mostly Cloudy BKN008 78.1 73.9 87% 81 29.8 1008.9
29 21:53 SE 8 10.00 Mostly Cloudy BKN008 79 73.9 85% 83 29.78 1008.4
29 20:53 SE 9 10.00 Fair CLR 79 73.9 85% 83 29.76 1007.5
29 19:53 SE 13 10.00 Fair CLR 81 73 77% 86 29.74 1006.9
29 18:53 SE 14 10.00 Fair CLR 82.9 73 91 82.9 72% 89 29.74 1007.0
29 17:53 SE 20 G 29 10.00 Fair CLR 84.9 72 65% 91 29.73 1006.5
29 16:53 SE 20 10.00 A Few Clouds FEW060 87.1 72 61% 94 29.75 1007.2
29 15:53 SE 15 G 25 10.00 A Few Clouds FEW050 89.1 73 59% 97 29.76 1007.8
29 14:53 SE 22 G 29 10.00 A Few Clouds and Breezy FEW040 90 72 56% 97 29.79 1008.6
Date Time (cdt) Wind (mph) Vis. (mi.) Weather Sky Cond. Air Dwpt Max. Min. Relative Humidity Wind Chill (°F) Heat Index (°F) altimeter (in) sea level (mb) 1 hr 3 hr 6 hr
6 hour
Temperature (ºF) Pressure Precipitation (in)